Time;durP1;ratioP1;P1;durP2;ratioP2;P2;SDS_P1;SDS_P2;PMS_P1;PMS_P2;Temp;Humidity;BMP_temperature;BMP_pressure;BME280_temperature;BME280_humidity;BME280_pressure;Samples;Min_cycle;Max_cycle;Signal;HPM_P1;HPM_P2
2022/03/10 00:01:56;;;;;;;30.37;15.53;;;;;;;;;;4415555;32;20343;-51
2022/03/10 00:04:22;;;;;;;29.63;15.17;;;;;;;;;;4395722;32;20560;-51
2022/03/10 00:06:47;;;;;;;13.93;8.20;;;;;;;;;;4417678;32;20280;-52
2022/03/10 00:09:13;;;;;;;11.43;7.97;;;;;;;;;;4412228;32;20269;-52
2022/03/10 00:11:40;;;;;;;17.13;11.00;;;;;;;;;;4406011;32;20284;-54
2022/03/10 00:14:05;;;;;;;25.17;12.07;;;;;;;;;;4413524;32;20259;-51
2022/03/10 00:16:31;;;;;;;34.33;12.20;;;;;;;;;;4405444;32;20313;-52
2022/03/10 00:18:57;;;;;;;20.23;10.43;;;;;;;;;;4413054;32;20324;-52
2022/03/10 00:21:22;;;;;;;20.67;11.53;;;;;;;;;;4405674;32;20344;-52
2022/03/10 00:23:47;;;;;;;19.80;11.63;;;;;;;;;;4415836;32;20221;-53
2022/03/10 00:26:13;;;;;;;29.63;11.87;;;;;;;;;;4417336;32;20645;-52
2022/03/10 00:28:38;;;;;;;18.13;10.03;;;;;;;;;;4402586;32;20240;-51
2022/03/10 00:31:04;;;;;;;10.37;8.17;;;;;;;;;;4402913;32;20376;-52
2022/03/10 00:33:29;;;;;;;11.97;8.97;;;;;;;;;;4417377;32;20208;-54
2022/03/10 00:35:55;;;;;;;15.97;9.33;;;;;;;;;;4417312;32;20836;-54
2022/03/10 00:38:20;;;;;;;19.60;9.90;;;;;;;;;;4415867;32;20378;-52
2022/03/10 00:40:46;;;;;;;15.07;10.10;;;;;;;;;;4402734;32;20300;-53
2022/03/10 00:43:12;;;;;;;16.47;10.33;;;;;;;;;;4415928;32;20713;-52
2022/03/10 00:45:39;;;;;;;15.30;9.67;;;;;;;;;;4416490;32;20213;-53
2022/03/10 00:48:04;;;;;;;21.03;10.47;;;;;;;;;;4412768;32;20214;-52
2022/03/10 00:50:30;;;;;;;14.13;9.70;;;;;;;;;;4406821;32;20687;-53
2022/03/10 00:52:55;;;;;;;23.60;13.40;;;;;;;;;;4413773;32;20197;-52
2022/03/10 00:55:21;;;;;;;24.57;15.00;;;;;;;;;;4414224;32;20527;-52
2022/03/10 00:57:48;;;;;;;27.57;15.30;;;;;;;;;;4416119;32;20573;-52
2022/03/10 01:00:14;;;;;;;34.27;16.07;;;;;;;;;;4416863;32;20633;-53
2022/03/10 01:02:40;;;;;;;34.33;15.20;;;;;;;;;;4402215;32;20221;-53
2022/03/10 01:05:06;;;;;;;20.57;11.20;;;;;;;;;;4406874;32;20229;-52
2022/03/10 01:07:32;;;;;;;17.03;10.30;;;;;;;;;;4401507;32;20311;-51
2022/03/10 01:09:58;;;;;;;15.37;10.17;;;;;;;;;;4401696;32;20249;-50
2022/03/10 01:12:23;;;;;;;14.20;8.90;;;;;;;;;;4400763;32;20789;-52
2022/03/10 01:14:49;;;;;;;12.50;9.20;;;;;;;;;;4414331;32;20383;-51
2022/03/10 01:17:14;;;;;;;21.83;12.27;;;;;;;;;;4402635;32;20280;-51
2022/03/10 01:19:40;;;;;;;17.73;10.70;;;;;;;;;;4416119;32;20300;-51
2022/03/10 01:22:07;;;;;;;16.50;8.77;;;;;;;;;;4415693;32;20318;-51
2022/03/10 01:24:33;;;;;;;13.33;9.77;;;;;;;;;;4403269;32;20316;-52
2022/03/10 01:26:59;;;;;;;16.50;10.30;;;;;;;;;;4401753;32;20346;-52
2022/03/10 01:29:24;;;;;;;21.63;12.93;;;;;;;;;;4402370;32;20338;-51
2022/03/10 01:31:50;;;;;;;28.80;12.70;;;;;;;;;;4416261;32;20343;-51
2022/03/10 01:34:15;;;;;;;20.27;11.63;;;;;;;;;;4404770;32;20230;-51
2022/03/10 01:36:41;;;;;;;15.77;8.77;;;;;;;;;;4401259;32;20299;-52
2022/03/10 01:39:06;;;;;;;10.77;7.93;;;;;;;;;;4411017;32;20591;-52
2022/03/10 01:41:32;;;;;;;14.17;9.53;;;;;;;;;;4416531;32;20256;-53
2022/03/10 01:44:06;;;;;;;11.47;7.57;;;;;;;;;;4406179;32;20250;-52
2022/03/10 01:46:33;;;;;;;10.93;7.47;;;;;;;;;;4409639;32;20213;-51
2022/03/10 01:48:59;;;;;;;11.03;8.33;;;;;;;;;;4415192;32;20585;-52
2022/03/10 01:51:24;;;;;;;9.67;7.20;;;;;;;;;;4416299;32;20748;-52
2022/03/10 01:53:51;;;;;;;12.43;7.67;;;;;;;;;;4415919;32;20353;-51
2022/03/10 01:56:18;;;;;;;9.17;7.60;;;;;;;;;;4415817;32;20625;-51
2022/03/10 01:58:47;;;;;;;14.77;8.03;;;;;;;;;;4415869;32;20237;-51
2022/03/10 02:01:14;;;;;;;11.87;7.27;;;;;;;;;;4407141;32;20217;-51
2022/03/10 02:03:40;;;;;;;12.30;8.70;;;;;;;;;;4400649;32;20319;-52
2022/03/10 02:06:06;;;;;;;12.87;8.90;;;;;;;;;;4387455;32;20648;-54
2022/03/10 02:11:17;;;;;;;13.27;10.00;;;;;;;;;;4400961;32;20303;-51
2022/03/10 02:13:43;;;;;;;13.03;8.77;;;;;;;;;;4400259;32;20304;-51
2022/03/10 02:19:00;;;;;;;13.97;8.63;;;;;;;;;;4406670;32;20294;-51
2022/03/10 02:21:26;;;;;;;14.77;9.07;;;;;;;;;;4400826;32;20871;-52
2022/03/10 02:23:52;;;;;;;13.00;8.50;;;;;;;;;;4415844;32;20310;-53
2022/03/10 02:26:17;;;;;;;16.23;10.17;;;;;;;;;;4417329;32;20275;-53
2022/03/10 02:28:43;;;;;;;15.73;9.30;;;;;;;;;;4403646;32;20251;-53
2022/03/10 02:31:10;;;;;;;15.30;9.73;;;;;;;;;;4414056;32;20341;-55
2022/03/10 02:33:35;;;;;;;15.20;10.00;;;;;;;;;;4404514;32;20252;-52
2022/03/10 02:36:01;;;;;;;19.63;11.47;;;;;;;;;;4415147;32;20217;-52
2022/03/10 02:38:27;;;;;;;14.57;9.57;;;;;;;;;;4391337;32;20644;-51
2022/03/10 02:40:53;;;;;;;19.03;9.50;;;;;;;;;;4409213;32;20248;-52
2022/03/10 02:43:20;;;;;;;14.87;9.60;;;;;;;;;;4405768;32;20291;-51
2022/03/10 02:45:46;;;;;;;15.63;9.67;;;;;;;;;;4414680;32;20225;-51
2022/03/10 02:48:16;;;;;;;15.93;9.97;;;;;;;;;;4401012;32;20263;-50
2022/03/10 02:50:43;;;;;;;20.47;11.63;;;;;;;;;;4404732;32;20278;-51
2022/03/10 02:53:10;;;;;;;16.20;10.03;;;;;;;;;;4404447;32;20372;-51
2022/03/10 02:55:37;;;;;;;14.10;9.07;;;;;;;;;;4418199;32;20449;-51
2022/03/10 02:58:02;;;;;;;22.10;13.47;;;;;;;;;;4407159;32;20598;-51
2022/03/10 03:00:28;;;;;;;22.60;12.97;;;;;;;;;;4411539;32;20256;-51
2022/03/10 03:02:54;;;;;;;18.23;11.10;;;;;;;;;;4404453;32;20373;-50
2022/03/10 03:05:19;;;;;;;21.07;12.80;;;;;;;;;;4418436;32;20668;-51
2022/03/10 03:07:45;;;;;;;18.20;12.07;;;;;;;;;;4417810;32;20319;-53
2022/03/10 03:10:12;;;;;;;14.07;10.60;;;;;;;;;;4418344;32;20340;-51
2022/03/10 03:12:50;;;;;;;16.27;9.97;;;;;;;;;;4410305;32;20618;-52
2022/03/10 03:15:17;;;;;;;18.10;10.67;;;;;;;;;;4402790;32;20281;-51
2022/03/10 03:17:42;;;;;;;11.67;8.23;;;;;;;;;;4413616;32;20667;-52
2022/03/10 03:20:14;;;;;;;20.63;10.43;;;;;;;;;;4418671;32;20276;-51
2022/03/10 03:22:40;;;;;;;14.87;8.83;;;;;;;;;;4427252;32;20671;-52
2022/03/10 03:25:05;;;;;;;14.00;9.27;;;;;;;;;;4433002;32;20274;-52
2022/03/10 03:27:31;;;;;;;13.07;8.63;;;;;;;;;;4408763;32;20280;-50
2022/03/10 03:29:56;;;;;;;14.07;9.47;;;;;;;;;;4388896;32;20241;-51
2022/03/10 03:32:22;;;;;;;11.33;8.50;;;;;;;;;;4400806;32;20441;-51
2022/03/10 03:34:47;;;;;;;12.23;8.10;;;;;;;;;;4417730;32;20220;-51
2022/03/10 03:37:12;;;;;;;11.33;7.87;;;;;;;;;;4416212;32;20643;-51
2022/03/10 03:39:38;;;;;;;12.20;8.07;;;;;;;;;;4417987;32;20237;-52
2022/03/10 03:42:03;;;;;;;14.00;8.50;;;;;;;;;;4427825;32;20354;-51
2022/03/10 03:44:29;;;;;;;13.20;8.93;;;;;;;;;;4431344;32;20486;-51
2022/03/10 03:46:54;;;;;;;11.27;8.33;;;;;;;;;;4415064;32;20322;-52
2022/03/10 03:49:20;;;;;;;12.90;8.70;;;;;;;;;;4418042;32;20942;-51
2022/03/10 03:51:45;;;;;;;9.83;7.23;;;;;;;;;;4409981;32;20371;-51
2022/03/10 03:54:11;;;;;;;12.20;8.30;;;;;;;;;;4413516;32;20323;-53
2022/03/10 03:56:37;;;;;;;9.70;6.70;;;;;;;;;;4417573;32;20716;-52
2022/03/10 03:59:04;;;;;;;12.07;8.43;;;;;;;;;;4417050;32;20357;-51
2022/03/10 04:01:29;;;;;;;12.93;7.90;;;;;;;;;;4411242;32;20218;-52
2022/03/10 04:03:55;;;;;;;10.70;8.37;;;;;;;;;;4403444;32;20526;-51
2022/03/10 04:06:21;;;;;;;10.80;8.33;;;;;;;;;;4412329;32;20364;-52
2022/03/10 04:08:47;;;;;;;13.00;9.23;;;;;;;;;;4402197;32;20622;-51
2022/03/10 04:11:12;;;;;;;12.80;7.87;;;;;;;;;;4388239;32;20397;-51
2022/03/10 04:13:38;;;;;;;12.83;8.17;;;;;;;;;;4412776;32;20226;-53
2022/03/10 04:16:03;;;;;;;12.63;8.33;;;;;;;;;;4417123;32;20273;-53
2022/03/10 04:18:29;;;;;;;12.47;9.10;;;;;;;;;;4417203;32;20224;-52
2022/03/10 04:20:58;;;;;;;14.23;9.27;;;;;;;;;;4413720;32;20745;-53
2022/03/10 04:23:26;;;;;;;13.50;8.30;;;;;;;;;;4407730;32;20213;-51
2022/03/10 04:25:52;;;;;;;12.33;7.10;;;;;;;;;;4417030;32;20302;-51
2022/03/10 04:28:18;;;;;;;20.40;7.87;;;;;;;;;;4416327;32;20245;-52
2022/03/10 04:30:44;;;;;;;14.50;8.27;;;;;;;;;;4416820;32;20715;-52
2022/03/10 04:33:09;;;;;;;30.37;20.27;;;;;;;;;;4403375;32;20244;-51
2022/03/10 04:35:35;;;;;;;38.00;22.53;;;;;;;;;;4416559;32;20280;-52
2022/03/10 04:38:01;;;;;;;25.93;15.83;;;;;;;;;;4416313;32;20309;-51
2022/03/10 04:40:27;;;;;;;23.63;15.83;;;;;;;;;;4417166;32;20249;-52
2022/03/10 04:42:53;;;;;;;15.43;10.23;;;;;;;;;;4416203;32;20223;-52
2022/03/10 04:45:19;;;;;;;18.57;12.37;;;;;;;;;;4417294;32;20260;-52
2022/03/10 04:47:45;;;;;;;16.63;11.67;;;;;;;;;;4416353;32;20276;-51
2022/03/10 04:50:13;;;;;;;12.60;10.13;;;;;;;;;;4416011;32;20369;-52
2022/03/10 04:52:40;;;;;;;10.90;8.93;;;;;;;;;;4401363;32;20268;-51
2022/03/10 04:55:06;;;;;;;21.87;13.00;;;;;;;;;;4416867;32;20251;-52
2022/03/10 04:57:32;;;;;;;41.10;25.37;;;;;;;;;;4403886;32;20235;-51
2022/03/10 04:59:58;;;;;;;87.97;51.03;;;;;;;;;;4401562;32;20229;-51
2022/03/10 05:02:23;;;;;;;161.97;93.17;;;;;;;;;;4409853;32;20823;-51
2022/03/10 05:04:49;;;;;;;62.83;43.70;;;;;;;;;;4416882;32;20248;-52
2022/03/10 05:07:14;;;;;;;81.40;56.27;;;;;;;;;;4405529;32;20307;-53
2022/03/10 05:09:40;;;;;;;58.07;40.67;;;;;;;;;;4401705;32;20521;-53
2022/03/10 05:12:06;;;;;;;17.43;12.03;;;;;;;;;;4400802;32;20315;-51
2022/03/10 05:14:31;;;;;;;20.50;13.00;;;;;;;;;;4412769;32;20303;-52
2022/03/10 05:16:57;;;;;;;18.57;11.33;;;;;;;;;;4425134;32;20386;-52
2022/03/10 05:19:23;;;;;;;21.50;13.53;;;;;;;;;;4418215;32;20648;-52
2022/03/10 05:21:50;;;;;;;43.30;23.17;;;;;;;;;;4431630;32;20213;-52
2022/03/10 05:24:15;;;;;;;24.90;15.07;;;;;;;;;;4425475;32;20622;-53
2022/03/10 05:26:41;;;;;;;25.17;14.30;;;;;;;;;;4413395;32;20304;-52
2022/03/10 05:29:06;;;;;;;18.93;12.67;;;;;;;;;;4396980;32;20306;-52
2022/03/10 05:31:32;;;;;;;18.30;11.93;;;;;;;;;;4401181;32;20257;-53
2022/03/10 05:33:58;;;;;;;17.97;10.27;;;;;;;;;;4400673;32;20216;-51
2022/03/10 05:36:23;;;;;;;14.43;8.80;;;;;;;;;;4416586;32;20310;-52
2022/03/10 05:38:48;;;;;;;15.50;10.37;;;;;;;;;;4414389;32;20724;-51
2022/03/10 05:41:14;;;;;;;18.73;10.37;;;;;;;;;;4400851;32;20268;-54
2022/03/10 05:43:39;;;;;;;14.97;9.37;;;;;;;;;;4413924;32;20599;-51
2022/03/10 05:46:05;;;;;;;20.00;11.43;;;;;;;;;;4415576;32;20298;-52
2022/03/10 05:48:31;;;;;;;26.63;16.00;;;;;;;;;;4415942;32;20344;-54
2022/03/10 05:50:56;;;;;;;27.60;16.60;;;;;;;;;;4407952;32;20288;-53
2022/03/10 05:53:22;;;;;;;36.47;17.30;;;;;;;;;;4415869;32;20232;-52
2022/03/10 05:55:47;;;;;;;26.63;13.63;;;;;;;;;;4401933;32;20341;-56
2022/03/10 05:58:13;;;;;;;19.87;12.20;;;;;;;;;;4400585;32;20293;-55
2022/03/10 06:00:39;;;;;;;30.90;16.20;;;;;;;;;;4416969;32;20310;-53
2022/03/10 06:03:06;;;;;;;20.50;10.87;;;;;;;;;;4418814;32;20359;-52
2022/03/10 06:05:32;;;;;;;23.80;11.97;;;;;;;;;;4416625;32;20462;-53
2022/03/10 06:07:57;;;;;;;27.87;10.37;;;;;;;;;;4433583;32;20236;-52
2022/03/10 06:10:23;;;;;;;17.93;10.30;;;;;;;;;;4411335;32;20226;-53
2022/03/10 06:12:48;;;;;;;20.60;12.27;;;;;;;;;;4407326;32;20226;-52
2022/03/10 06:15:14;;;;;;;14.43;10.30;;;;;;;;;;4394645;32;20225;-54
2022/03/10 06:17:40;;;;;;;27.77;11.10;;;;;;;;;;4412475;32;20241;-52
2022/03/10 06:20:06;;;;;;;17.93;10.67;;;;;;;;;;4418511;32;20653;-53
2022/03/10 06:22:32;;;;;;;18.73;9.97;;;;;;;;;;4391928;32;20237;-54
2022/03/10 06:24:59;;;;;;;18.43;10.83;;;;;;;;;;4418924;32;20217;-52
2022/03/10 06:27:25;;;;;;;26.50;10.50;;;;;;;;;;4415230;32;20283;-54
2022/03/10 06:29:51;;;;;;;27.07;12.40;;;;;;;;;;4390222;32;20678;-56
2022/03/10 06:32:18;;;;;;;25.20;11.20;;;;;;;;;;4390427;32;20225;-52
2022/03/10 06:34:44;;;;;;;31.30;11.83;;;;;;;;;;4417493;32;20271;-52
2022/03/10 06:37:10;;;;;;;25.50;12.10;;;;;;;;;;4418807;32;20193;-52
2022/03/10 06:39:35;;;;;;;20.83;12.37;;;;;;;;;;4410747;32;20356;-51
2022/03/10 06:42:03;;;;;;;21.40;11.03;;;;;;;;;;4412877;32;20299;-53
2022/03/10 06:44:29;;;;;;;15.93;9.40;;;;;;;;;;4398937;32;20287;-52
2022/03/10 06:46:55;;;;;;;16.60;10.20;;;;;;;;;;4417744;32;20643;-52
2022/03/10 06:49:21;;;;;;;23.90;12.93;;;;;;;;;;4412279;32;20383;-52
2022/03/10 06:51:47;;;;;;;20.40;12.23;;;;;;;;;;4403118;32;20378;-52
2022/03/10 06:54:13;;;;;;;18.23;10.83;;;;;;;;;;4394772;32;20298;-52
2022/03/10 06:56:39;;;;;;;17.03;10.87;;;;;;;;;;4413835;32;20317;-53
2022/03/10 06:59:05;;;;;;;20.87;10.37;;;;;;;;;;4410724;32;20642;-53
2022/03/10 07:01:30;;;;;;;11.37;7.47;;;;;;;;;;4403186;32;20285;-53
2022/03/10 07:03:57;;;;;;;10.03;6.60;;;;;;;;;;4412529;32;20294;-53
2022/03/10 07:06:23;;;;;;;11.90;8.20;;;;;;;;;;4418752;32;20365;-52
2022/03/10 07:08:49;;;;;;;10.00;6.80;;;;;;;;;;4433708;32;20692;-54
2022/03/10 07:11:14;;;;;;;10.93;7.73;;;;;;;;;;4428225;32;20279;-54
2022/03/10 07:13:39;;;;;;;8.90;6.30;;;;;;;;;;4414104;32;20270;-52
2022/03/10 07:16:05;;;;;;;9.73;7.03;;;;;;;;;;4408745;32;20289;-54
2022/03/10 07:18:30;;;;;;;14.70;8.73;;;;;;;;;;4408720;32;20405;-52
2022/03/10 07:20:56;;;;;;;9.43;6.83;;;;;;;;;;4408765;32;20386;-53
2022/03/10 07:23:21;;;;;;;12.23;7.60;;;;;;;;;;4409663;32;21416;-54
2022/03/10 07:25:47;;;;;;;21.57;10.10;;;;;;;;;;4412512;32;20280;-53
2022/03/10 07:28:12;;;;;;;16.97;8.27;;;;;;;;;;4417185;32;20677;-54
2022/03/10 07:30:38;;;;;;;10.47;6.37;;;;;;;;;;4417519;32;20470;-53
2022/03/10 07:33:03;;;;;;;14.43;7.60;;;;;;;;;;4404150;32;20660;-52
2022/03/10 07:35:29;;;;;;;10.63;6.47;;;;;;;;;;4413982;32;20311;-55
2022/03/10 07:37:56;;;;;;;29.63;15.63;;;;;;;;;;4426439;32;20220;-53
2022/03/10 07:40:22;;;;;;;32.73;16.63;;;;;;;;;;4431477;32;20743;-54
2022/03/10 07:42:48;;;;;;;11.13;6.90;;;;;;;;;;4416118;32;20217;-55
2022/03/10 07:45:13;;;;;;;18.13;9.93;;;;;;;;;;4415044;32;20230;-52
2022/03/10 07:47:39;;;;;;;23.40;9.67;;;;;;;;;;4404794;32;20353;-54
2022/03/10 07:50:06;;;;;;;14.40;8.90;;;;;;;;;;4404271;32;20299;-53
2022/03/10 07:52:32;;;;;;;56.70;28.77;;;;;;;;;;4404185;32;20749;-52
2022/03/10 07:54:58;;;;;;;24.77;12.63;;;;;;;;;;4407314;32;20384;-53
2022/03/10 07:57:23;;;;;;;22.67;11.70;;;;;;;;;;4420076;32;20217;-52
2022/03/10 07:59:50;;;;;;;20.57;12.03;;;;;;;;;;4415035;32;20237;-51
2022/03/10 08:02:15;;;;;;;18.40;10.97;;;;;;;;;;4406780;32;20311;-52
2022/03/10 08:04:41;;;;;;;14.83;7.53;;;;;;;;;;4412388;32;20300;-56
2022/03/10 08:07:06;;;;;;;9.20;6.40;;;;;;;;;;4414183;32;20292;-53
2022/03/10 08:09:32;;;;;;;11.23;7.87;;;;;;;;;;4398272;32;20331;-55
2022/03/10 08:11:57;;;;;;;21.03;10.17;;;;;;;;;;4427357;32;20738;-54
2022/03/10 08:14:23;;;;;;;15.30;8.07;;;;;;;;;;4426164;32;20324;-52
2022/03/10 08:16:48;;;;;;;13.93;7.33;;;;;;;;;;4401328;32;20370;-52
2022/03/10 08:19:14;;;;;;;12.77;7.20;;;;;;;;;;4409907;32;20323;-53
2022/03/10 08:21:39;;;;;;;9.10;7.13;;;;;;;;;;4414884;32;20281;-53
2022/03/10 08:24:06;;;;;;;14.43;8.27;;;;;;;;;;4412030;32;20260;-52
2022/03/10 08:26:32;;;;;;;9.53;6.13;;;;;;;;;;4381164;32;20461;-53
2022/03/10 08:28:57;;;;;;;10.90;7.23;;;;;;;;;;4410451;32;20621;-53
2022/03/10 08:31:23;;;;;;;13.07;6.17;;;;;;;;;;4410672;32;20243;-52
2022/03/10 08:33:50;;;;;;;14.13;7.07;;;;;;;;;;4425574;32;20714;-52
2022/03/10 08:36:16;;;;;;;11.30;6.70;;;;;;;;;;4403457;32;20316;-51
2022/03/10 08:38:41;;;;;;;17.80;9.33;;;;;;;;;;4415871;32;20254;-52
2022/03/10 08:41:07;;;;;;;18.80;10.13;;;;;;;;;;4421260;32;20697;-53
2022/03/10 08:43:33;;;;;;;8.67;5.13;;;;;;;;;;4404519;32;20264;-53
2022/03/10 08:46:02;;;;;;;9.03;5.87;;;;;;;;;;4412478;32;21658;-53
2022/03/10 08:48:28;;;;;;;6.70;4.90;;;;;;;;;;4406770;32;20278;-52
2022/03/10 08:50:53;;;;;;;8.70;4.03;;;;;;;;;;4415762;32;20593;-53
2022/03/10 08:53:19;;;;;;;5.50;4.37;;;;;;;;;;4416095;32;20209;-52
2022/03/10 08:55:44;;;;;;;11.33;4.97;;;;;;;;;;4414726;32;20295;-53
2022/03/10 08:58:10;;;;;;;21.60;8.67;;;;;;;;;;4415936;32;20686;-52
2022/03/10 09:00:35;;;;;;;9.27;5.03;;;;;;;;;;4416340;32;20368;-53
2022/03/10 09:03:02;;;;;;;5.43;3.93;;;;;;;;;;4414853;32;20334;-52
2022/03/10 09:05:27;;;;;;;9.60;5.37;;;;;;;;;;4422378;32;20232;-54
2022/03/10 09:07:53;;;;;;;8.90;5.50;;;;;;;;;;4400118;32;20970;-52
2022/03/10 09:10:19;;;;;;;5.57;3.87;;;;;;;;;;4405560;32;20577;-53
2022/03/10 09:12:45;;;;;;;11.07;6.80;;;;;;;;;;4401734;32;20387;-52
2022/03/10 09:15:10;;;;;;;6.13;4.50;;;;;;;;;;4416226;32;20335;-52
2022/03/10 09:17:37;;;;;;;5.63;3.80;;;;;;;;;;4403133;32;20267;-53
2022/03/10 09:20:05;;;;;;;13.73;6.53;;;;;;;;;;4411408;32;20303;-52
2022/03/10 09:22:31;;;;;;;16.27;6.93;;;;;;;;;;4415507;32;20358;-53
2022/03/10 09:24:56;;;;;;;6.57;4.50;;;;;;;;;;4416395;32;20679;-52
2022/03/10 09:27:22;;;;;;;7.27;4.80;;;;;;;;;;4415330;32;20350;-52
2022/03/10 09:29:47;;;;;;;10.20;6.13;;;;;;;;;;4414285;32;20209;-54
2022/03/10 09:32:13;;;;;;;7.97;4.27;;;;;;;;;;4418250;32;20792;-52
2022/03/10 09:34:39;;;;;;;14.13;6.97;;;;;;;;;;4428862;32;20252;-52
2022/03/10 09:37:06;;;;;;;10.63;6.40;;;;;;;;;;4398987;32;20647;-54
2022/03/10 09:39:32;;;;;;;11.60;6.17;;;;;;;;;;4390267;32;20343;-51
2022/03/10 09:42:03;;;;;;;7.20;4.50;;;;;;;;;;4409741;32;20503;-52
2022/03/10 09:44:30;;;;;;;9.90;5.87;;;;;;;;;;4393338;32;20256;-51
2022/03/10 09:47:02;;;;;;;8.90;6.60;;;;;;;;;;4401704;32;20736;-52
2022/03/10 09:49:28;;;;;;;11.33;6.63;;;;;;;;;;4400135;32;20589;-52
2022/03/10 09:51:54;;;;;;;14.27;9.57;;;;;;;;;;4414570;32;20349;-52
2022/03/10 09:54:21;;;;;;;14.87;10.00;;;;;;;;;;4407895;32;20464;-52
2022/03/10 09:56:47;;;;;;;10.67;5.53;;;;;;;;;;4410488;32;20325;-52
2022/03/10 09:59:13;;;;;;;11.67;6.60;;;;;;;;;;4401109;32;20232;-53
2022/03/10 10:01:38;;;;;;;18.97;9.37;;;;;;;;;;4401542;32;20641;-53
2022/03/10 10:04:06;;;;;;;9.70;6.00;;;;;;;;;;4398631;32;20260;-53
2022/03/10 10:06:34;;;;;;;27.30;11.67;;;;;;;;;;4415752;32;20330;-54
2022/03/10 10:09:00;;;;;;;14.93;8.20;;;;;;;;;;4415374;32;20217;-53
2022/03/10 10:11:35;;;;;;;13.10;5.87;;;;;;;;;;4415347;32;20298;-52
2022/03/10 10:14:00;;;;;;;9.53;6.37;;;;;;;;;;4409451;32;20224;-52
2022/03/10 10:16:26;;;;;;;9.30;6.10;;;;;;;;;;4415997;32;20252;-53
2022/03/10 10:18:58;;;;;;;5.47;4.10;;;;;;;;;;4410655;32;20245;-53
2022/03/10 10:21:25;;;;;;;8.80;5.63;;;;;;;;;;4400232;32;20252;-53
2022/03/10 10:23:53;;;;;;;13.80;5.27;;;;;;;;;;4401422;32;20300;-52
2022/03/10 10:26:25;;;;;;;10.63;5.80;;;;;;;;;;4415295;32;20659;-53
2022/03/10 10:28:51;;;;;;;8.13;4.83;;;;;;;;;;4415616;32;20830;-53
2022/03/10 10:31:21;;;;;;;11.80;5.83;;;;;;;;;;4398819;32;20324;-53
2022/03/10 10:33:57;;;;;;;6.57;3.43;;;;;;;;;;4414296;32;20233;-52
2022/03/10 10:36:30;;;;;;;7.80;4.20;;;;;;;;;;4407863;32;20332;-59
2022/03/10 10:39:15;;;;;;;7.53;4.97;;;;;;;;;;4415724;32;20314;-53
2022/03/10 10:41:43;;;;;;;12.40;7.87;;;;;;;;;;4400921;32;20332;-53
2022/03/10 10:44:15;;;;;;;8.03;4.87;;;;;;;;;;4410705;32;20347;-52
2022/03/10 10:46:46;;;;;;;11.37;6.13;;;;;;;;;;4414369;32;20294;-52
2022/03/10 10:49:15;;;;;;;7.63;6.00;;;;;;;;;;4417819;32;20256;-52
2022/03/10 10:51:43;;;;;;;9.37;5.87;;;;;;;;;;4411682;32;20256;-51
2022/03/10 10:54:23;;;;;;;14.93;8.30;;;;;;;;;;4410630;32;20288;-51
2022/03/10 10:56:54;;;;;;;10.20;5.77;;;;;;;;;;4413668;32;20710;-52
2022/03/10 10:59:34;;;;;;;15.57;8.17;;;;;;;;;;4409458;32;20344;-52
2022/03/10 11:02:09;;;;;;;13.57;6.87;;;;;;;;;;4423421;32;20280;-52
2022/03/10 11:04:36;;;;;;;5.77;4.07;;;;;;;;;;4416414;32;20363;-52
2022/03/10 11:07:02;;;;;;;9.40;5.13;;;;;;;;;;4413767;32;20287;-53
2022/03/10 11:09:30;;;;;;;14.20;7.00;;;;;;;;;;4415025;32;20236;-53
2022/03/10 11:11:56;;;;;;;27.43;8.87;;;;;;;;;;4413243;32;20392;-53
2022/03/10 11:14:21;;;;;;;9.13;6.33;;;;;;;;;;4420418;32;20319;-53
2022/03/10 11:16:48;;;;;;;9.60;5.43;;;;;;;;;;4398868;32;20253;-53
2022/03/10 11:19:15;;;;;;;15.53;7.00;;;;;;;;;;4412588;32;20403;-54
2022/03/10 11:21:49;;;;;;;17.40;7.43;;;;;;;;;;4399363;32;20717;-53
2022/03/10 11:24:30;;;;;;;15.37;7.43;;;;;;;;;;4418557;32;20212;-52
2022/03/10 11:27:08;;;;;;;14.80;8.67;;;;;;;;;;4423116;32;20275;-53
2022/03/10 11:29:34;;;;;;;10.23;5.70;;;;;;;;;;4409852;32;20338;-53
2022/03/10 11:32:00;;;;;;;10.70;6.17;;;;;;;;;;4412958;32;20218;-52
2022/03/10 11:34:44;;;;;;;10.43;6.73;;;;;;;;;;4417530;32;20288;-52
2022/03/10 11:37:10;;;;;;;8.17;4.53;;;;;;;;;;4411674;32;20415;-53
2022/03/10 11:39:55;;;;;;;13.73;6.43;;;;;;;;;;4396377;32;20352;-52
2022/03/10 11:42:30;;;;;;;9.73;4.10;;;;;;;;;;4406422;32;20430;-52
2022/03/10 11:45:19;;;;;;;10.10;7.10;;;;;;;;;;4415167;32;20246;-52
2022/03/10 11:47:46;;;;;;;9.47;5.30;;;;;;;;;;4421986;32;20541;-53
2022/03/10 11:50:24;;;;;;;18.37;9.10;;;;;;;;;;4400767;32;20316;-55
2022/03/10 11:52:57;;;;;;;16.03;10.63;;;;;;;;;;4404023;32;20270;-53
2022/03/10 11:55:41;;;;;;;16.23;8.33;;;;;;;;;;4388474;32;20237;-52
2022/03/10 11:58:10;;;;;;;17.40;10.00;;;;;;;;;;4413696;32;20350;-53
2022/03/10 12:00:44;;;;;;;13.60;8.10;;;;;;;;;;4403200;32;20328;-53
2022/03/10 12:03:33;;;;;;;14.43;9.13;;;;;;;;;;4394461;32;20342;-53
2022/03/10 12:06:01;;;;;;;15.60;7.97;;;;;;;;;;4416289;32;20214;-53
2022/03/10 12:08:32;;;;;;;14.77;7.67;;;;;;;;;;4415513;32;20317;-52
2022/03/10 12:10:59;;;;;;;8.07;5.33;;;;;;;;;;4416059;32;20540;-51
2022/03/10 12:13:30;;;;;;;10.40;4.90;;;;;;;;;;4415309;32;20694;-51
2022/03/10 12:15:56;;;;;;;6.10;3.90;;;;;;;;;;4416702;32;20205;-52
2022/03/10 12:18:25;;;;;;;16.10;8.13;;;;;;;;;;4415509;32;20256;-53
2022/03/10 12:20:56;;;;;;;28.47;12.73;;;;;;;;;;4412985;32;20241;-52
2022/03/10 12:23:25;;;;;;;8.90;4.77;;;;;;;;;;4414807;32;20312;-52
2022/03/10 12:26:00;;;;;;;9.37;5.00;;;;;;;;;;4397364;32;20284;-52
2022/03/10 12:28:30;;;;;;;18.50;6.93;;;;;;;;;;4417017;32;20315;-55
2022/03/10 12:31:18;;;;;;;8.30;4.60;;;;;;;;;;4431660;32;20264;-52
2022/03/10 12:33:50;;;;;;;16.40;6.63;;;;;;;;;;4393337;32;20306;-51
2022/03/10 12:36:31;;;;;;;10.50;5.60;;;;;;;;;;4392116;32;20313;-52
2022/03/10 12:38:59;;;;;;;27.13;10.77;;;;;;;;;;4415838;32;20320;-52
2022/03/10 12:41:37;;;;;;;33.03;9.90;;;;;;;;;;4408892;32;20201;-52
2022/03/10 12:44:06;;;;;;;9.17;5.77;;;;;;;;;;4408751;32;20249;-53
2022/03/10 12:46:33;;;;;;;11.13;5.73;;;;;;;;;;4411884;32;20305;-51
2022/03/10 12:49:03;;;;;;;19.67;7.63;;;;;;;;;;4414620;32;20254;-51
2022/03/10 12:51:35;;;;;;;11.97;7.30;;;;;;;;;;4394167;32;20221;-51
2022/03/10 12:54:02;;;;;;;18.40;9.37;;;;;;;;;;4416061;32;20750;-51
2022/03/10 12:56:28;;;;;;;17.97;7.63;;;;;;;;;;4426313;32;20511;-51
2022/03/10 12:58:55;;;;;;;21.50;10.57;;;;;;;;;;4415749;32;20229;-51
2022/03/10 13:01:24;;;;;;;17.93;8.37;;;;;;;;;;4400645;32;20352;-52
2022/03/10 13:03:55;;;;;;;13.57;7.97;;;;;;;;;;4406812;32;20259;-52
2022/03/10 13:06:23;;;;;;;21.43;6.60;;;;;;;;;;4403288;32;20299;-53
2022/03/10 13:08:59;;;;;;;10.90;4.83;;;;;;;;;;4408114;32;20205;-52
2022/03/10 13:11:26;;;;;;;17.87;8.20;;;;;;;;;;4403116;32;20279;-52
2022/03/10 13:14:12;;;;;;;8.87;4.73;;;;;;;;;;4416035;32;20300;-52
2022/03/10 13:16:51;;;;;;;11.10;6.03;;;;;;;;;;4401581;32;20267;-51
2022/03/10 13:19:24;;;;;;;40.83;18.27;;;;;;;;;;4407489;32;20324;-51
2022/03/10 13:22:00;;;;;;;17.50;8.77;;;;;;;;;;4407926;32;20267;-52
2022/03/10 13:24:41;;;;;;;25.63;10.43;;;;;;;;;;4411521;32;20241;-51
2022/03/10 13:27:14;;;;;;;44.03;17.83;;;;;;;;;;4412495;32;20319;-51
2022/03/10 13:29:58;;;;;;;15.60;8.50;;;;;;;;;;4408582;32;20893;-52
2022/03/10 13:32:26;;;;;;;13.67;6.97;;;;;;;;;;4409347;32;20619;-51
2022/03/10 13:34:55;;;;;;;32.23;13.03;;;;;;;;;;4407018;32;20288;-51
2022/03/10 13:37:22;;;;;;;17.27;9.43;;;;;;;;;;4412363;32;20453;-51
2022/03/10 13:39:50;;;;;;;16.47;8.73;;;;;;;;;;4406171;32;20260;-51
2022/03/10 13:42:24;;;;;;;14.00;8.03;;;;;;;;;;4409786;32;20205;-51
2022/03/10 13:45:11;;;;;;;17.97;8.43;;;;;;;;;;4406759;32;20248;-52
2022/03/10 13:47:52;;;;;;;21.80;9.57;;;;;;;;;;4406677;32;20339;-51
2022/03/10 13:50:21;;;;;;;19.10;8.73;;;;;;;;;;4413621;32;20224;-52
2022/03/10 13:52:50;;;;;;;16.40;7.87;;;;;;;;;;4410084;32;20510;-51
2022/03/10 13:55:16;;;;;;;20.63;8.00;;;;;;;;;;4418003;32;20244;-51
2022/03/10 13:57:45;;;;;;;17.03;8.70;;;;;;;;;;4408127;32;20280;-51
2022/03/10 14:00:12;;;;;;;50.93;16.47;;;;;;;;;;4409035;32;20228;-51
2022/03/10 14:02:37;;;;;;;22.13;10.63;;;;;;;;;;4401886;32;20287;-51
2022/03/10 14:05:13;;;;;;;19.57;9.30;;;;;;;;;;4392681;32;20249;-52
2022/03/10 14:07:38;;;;;;;23.60;10.33;;;;;;;;;;4413148;32;20419;-51
2022/03/10 14:10:06;;;;;;;34.80;13.77;;;;;;;;;;4414313;32;20608;-51
2022/03/10 14:12:32;;;;;;;22.60;11.23;;;;;;;;;;4414123;32;20289;-51
2022/03/10 14:14:58;;;;;;;21.27;11.53;;;;;;;;;;4405654;32;20299;-51
2022/03/10 14:17:41;;;;;;;12.60;7.90;;;;;;;;;;4412629;32;20338;-51
2022/03/10 14:20:08;;;;;;;12.77;6.63;;;;;;;;;;4409534;32;20657;-51
2022/03/10 14:22:34;;;;;;;11.13;6.53;;;;;;;;;;4399035;32;20251;-52
2022/03/10 14:25:00;;;;;;;15.07;8.37;;;;;;;;;;4414030;32;20331;-52
2022/03/10 14:27:27;;;;;;;13.90;6.83;;;;;;;;;;4418125;32;20263;-52
2022/03/10 14:30:00;;;;;;;13.47;7.27;;;;;;;;;;4415966;32;20217;-52
2022/03/10 14:32:27;;;;;;;16.23;7.57;;;;;;;;;;4418606;32;20324;-52
2022/03/10 14:34:54;;;;;;;17.70;10.00;;;;;;;;;;4410925;32;20261;-52
2022/03/10 14:37:20;;;;;;;18.63;9.10;;;;;;;;;;4416056;32;21413;-52